Time;durP1;ratioP1;P1;durP2;ratioP2;P2;SDS_P1;SDS_P2;PMS_P1;PMS_P2;Temp;Humidity;BMP_temperature;BMP_pressure;BME280_temperature;BME280_humidity;BME280_pressure;Samples;Min_cycle;Max_cycle;Signal;HPM_P1;HPM_P2
2022/06/13 00:02:21;;;;;;;7.50;3.80;;;21.20;77.10;;;;;;4937748;28;20019;-72
2022/06/13 00:04:46;;;;;;;5.03;3.63;;;21.10;77.50;;;;;;5002393;28;20086;-73
2022/06/13 00:07:12;;;;;;;5.17;3.80;;;21.10;77.70;;;;;;4969184;28;20073;-73
2022/06/13 00:09:38;;;;;;;3.70;3.30;;;21.10;78.40;;;;;;5004754;28;20034;-73
2022/06/13 00:12:04;;;;;;;3.83;3.37;;;21.00;77.10;;;;;;5006207;28;20106;-73
2022/06/13 00:14:30;;;;;;;5.07;3.45;;;21.00;78.20;;;;;;4972666;28;20113;-73
2022/06/13 00:16:56;;;;;;;6.37;3.80;;;21.00;77.60;;;;;;5006681;28;20038;-72
2022/06/13 00:19:21;;;;;;;3.80;3.40;;;20.90;77.70;;;;;;5005585;28;20030;-73
2022/06/13 00:21:47;;;;;;;8.20;4.30;;;21.00;78.80;;;;;;5006172;28;20096;-73
2022/06/13 00:24:13;;;;;;;4.77;3.57;;;21.00;79.20;;;;;;5006004;28;20032;-73
2022/06/13 00:26:39;;;;;;;5.63;3.88;;;21.00;79.70;;;;;;5005779;28;20037;-73
2022/06/13 00:29:04;;;;;;;5.80;3.23;;;21.00;80.00;;;;;;5006072;28;20038;-73
2022/06/13 00:31:30;;;;;;;5.83;4.27;;;21.00;79.00;;;;;;4989082;28;20046;-73
2022/06/13 00:33:56;;;;;;;5.47;3.47;;;20.90;78.50;;;;;;5006017;28;20325;-74
2022/06/13 00:36:23;;;;;;;4.20;3.43;;;21.00;78.30;;;;;;4988952;28;20564;-73
2022/06/13 00:38:52;;;;;;;4.30;3.38;;;21.00;78.60;;;;;;4972562;28;20022;-73
2022/06/13 00:41:29;;;;;;;5.40;3.70;;;21.00;77.70;;;;;;5005894;28;20202;-73
2022/06/13 00:43:55;;;;;;;4.40;4.00;;;21.00;78.40;;;;;;4989632;28;20069;-73
2022/06/13 00:46:28;;;;;;;3.95;3.17;;;21.00;77.40;;;;;;5005965;28;20038;-73
2022/06/13 00:49:01;;;;;;;4.15;3.67;;;21.00;78.70;;;;;;5005904;28;20321;-73
2022/06/13 00:51:28;;;;;;;4.13;3.65;;;21.00;78.50;;;;;;4972562;28;20101;-73
2022/06/13 00:53:54;;;;;;;;;;;21.00;77.70;;;;;;4988892;28;20210;-73
2022/06/13 00:56:22;;;;;;;5.47;3.78;;;20.90;77.70;;;;;;4987991;28;19905;-73
2022/06/13 00:59:00;;;;;;;6.40;3.67;;;20.90;77.50;;;;;;4956913;28;20085;-73
2022/06/13 01:01:26;;;;;;;3.90;3.00;;;20.90;78.20;;;;;;4956679;28;20030;-73
2022/06/13 01:03:52;;;;;;;5.90;2.90;;;20.90;75.00;;;;;;4987334;28;20018;-73
2022/06/13 01:06:18;;;;;;;3.80;2.95;;;20.80;75.80;;;;;;4972125;28;20057;-73
2022/06/13 01:08:43;;;;;;;2.95;2.70;;;20.80;74.70;;;;;;4988306;28;20019;-73
2022/06/13 01:11:16;;;;;;;4.23;3.03;;;20.80;75.60;;;;;;4988326;28;20080;-73
2022/06/13 01:14:26;;;;;;;2.97;2.38;;;20.80;75.60;;;;;;4972012;28;20026;-73
2022/06/13 01:17:20;;;;;;;4.30;2.50;;;20.80;71.70;;;;;;5002532;28;20058;-73
2022/06/13 01:20:10;;;;;;;3.50;2.00;;;20.60;69.20;;;;;;5004375;28;20276;-73
2022/06/13 01:23:00;;;;;;;3.05;2.00;;;20.60;72.20;;;;;;4987256;28;20212;-74
2022/06/13 01:25:50;;;;;;;3.35;2.00;;;20.50;67.80;;;;;;4987458;28;20197;-73
2022/06/13 01:28:42;;;;;;;4.53;2.00;;;20.50;68.30;;;;;;4987452;28;20050;-73
2022/06/13 01:31:41;;;;;;;5.43;2.05;;;20.50;71.10;;;;;;4988724;28;20022;-73
2022/06/13 01:34:32;;;;;;;12.43;2.95;;;20.50;69.10;;;;;;4990536;28;20208;-73
2022/06/13 01:37:20;;;;;;;3.00;2.03;;;20.50;66.70;;;;;;5029267;23;20046;-76
2022/06/13 01:39:59;;;;;;;;;;;20.40;69.20;;;;;;4988978;28;20137;-75
2022/06/13 01:42:53;;;;;;;3.58;2.20;;;20.40;69.70;;;;;;5004150;28;19909;-74
2022/06/13 01:45:41;;;;;;;3.75;1.70;;;20.40;70.20;;;;;;5004888;28;20022;-75
2022/06/13 01:48:28;;;;;;;4.82;1.90;;;20.40;67.60;;;;;;4987670;28;20022;-74
2022/06/13 01:51:25;;;;;;;2.67;2.13;;;20.40;68.90;;;;;;4973404;28;20014;-75
2022/06/13 01:54:20;;;;;;;2.45;1.67;;;20.30;66.00;;;;;;4987146;28;20014;-75
2022/06/13 01:57:22;;;;;;;2.88;1.80;;;20.10;65.70;;;;;;4987391;28;20026;-75
2022/06/13 01:59:58;;;;;;;3.17;1.98;;;20.00;66.80;;;;;;4967570;28;20225;-75
2022/06/13 02:02:54;;;;;;;2.97;2.28;;;19.90;66.10;;;;;;4972315;28;20022;-75
2022/06/13 02:05:31;;;;;;;2.13;1.70;;;19.90;67.60;;;;;;4973411;28;20042;-75
2022/06/13 02:08:07;;;;;;;4.15;1.95;;;19.90;70.90;;;;;;4987918;28;20053;-75
2022/06/13 02:10:37;;;;;;;7.68;2.75;;;19.90;71.40;;;;;;4971782;28;20093;-75
2022/06/13 02:13:12;;;;;;;3.88;1.80;;;19.90;68.70;;;;;;4970905;28;20022;-75
2022/06/13 02:15:44;;;;;;;2.83;1.92;;;19.90;69.10;;;;;;4987550;28;20064;-74
2022/06/13 02:18:15;;;;;;;3.35;1.63;;;19.90;69.00;;;;;;4986410;28;20214;-75
2022/06/13 02:20:46;;;;;;;7.05;2.22;;;19.90;69.20;;;;;;4986808;28;20035;-72
2022/06/13 02:23:14;;;;;;;5.57;2.00;;;19.90;69.50;;;;;;4986207;28;20046;-72
2022/06/13 02:25:55;;;;;;;3.28;1.80;;;19.90;69.00;;;;;;4971139;28;20025;-74
2022/06/13 02:28:25;;;;;;;4.50;1.92;;;19.90;69.80;;;;;;4988155;28;20041;-75
2022/06/13 02:31:02;;;;;;;3.28;1.90;;;19.80;70.60;;;;;;4985618;28;20026;-75
2022/06/13 02:33:34;;;;;;;3.75;1.85;;;19.80;70.50;;;;;;4955309;28;20026;-75
2022/06/13 02:36:13;;;;;;;3.90;1.92;;;19.80;69.70;;;;;;4971417;28;20054;-75
2022/06/13 02:38:48;;;;;;;4.50;2.00;;;19.70;67.80;;;;;;4968936;28;20118;-75
2022/06/13 02:41:18;;;;;;;4.75;1.83;;;19.70;70.60;;;;;;4971011;28;20190;-75
2022/06/13 02:43:51;;;;;;;2.38;1.73;;;19.60;71.30;;;;;;4970558;28;20022;-75
2022/06/13 02:46:27;;;;;;;5.13;2.30;;;19.60;70.30;;;;;;5003393;28;20014;-75
2022/06/13 02:49:00;;;;;;;4.25;2.00;;;19.60;71.00;;;;;;4986798;28;20030;-75
2022/06/13 02:52:07;;;;;;;3.85;2.42;;;19.60;70.20;;;;;;4986915;28;20025;-75
2022/06/13 02:55:08;;;;;;;3.05;2.65;;;19.50;72.40;;;;;;4985642;28;20026;-74
2022/06/13 02:58:04;;;;;;;3.38;2.28;;;19.50;72.50;;;;;;4987348;28;20037;-74
2022/06/13 03:01:06;;;;;;;9.65;3.15;;;19.40;71.70;;;;;;4986276;28;20141;-74
2022/06/13 03:03:54;;;;;;;4.18;2.70;;;19.40;72.20;;;;;;4986068;28;20082;-74
2022/06/13 03:06:41;;;;;;;3.10;2.17;;;19.30;71.70;;;;;;4988784;28;20026;-74
2022/06/13 03:09:10;;;;;;;10.88;3.33;;;19.20;71.70;;;;;;4986063;28;20029;-75
2022/06/13 03:12:06;;;;;;;6.05;2.53;;;19.20;73.30;;;;;;4986541;28;20065;-74
2022/06/13 03:15:14;;;;;;;5.50;2.63;;;19.10;73.30;;;;;;5001429;28;20070;-74
2022/06/13 03:17:59;;;;;;;4.68;2.78;;;19.10;74.10;;;;;;4969124;28;20037;-74
2022/06/13 03:20:50;;;;;;;5.82;2.90;;;19.00;73.80;;;;;;4987085;28;20090;-74
2022/06/13 03:23:31;;;;;;;7.65;2.70;;;19.00;73.90;;;;;;4985281;28;20022;-74
2022/06/13 03:26:02;;;;;;;6.10;2.88;;;19.00;73.90;;;;;;4971778;28;20045;-74
2022/06/13 03:28:43;;;;;;;6.97;2.92;;;19.00;74.70;;;;;;4965989;28;20030;-74
2022/06/13 03:31:18;;;;;;;5.13;3.17;;;18.90;73.80;;;;;;4966592;28;20021;-74
2022/06/13 03:33:45;;;;;;;6.82;3.40;;;18.90;74.20;;;;;;4984868;28;20019;-74
2022/06/13 03:36:30;;;;;;;6.65;3.13;;;18.90;74.30;;;;;;4985951;28;20026;-74
2022/06/13 03:39:29;;;;;;;3.70;2.60;;;18.80;74.30;;;;;;4984853;28;20057;-75
2022/06/13 03:42:16;;;;;;;4.03;2.58;;;18.70;73.80;;;;;;4958803;28;20037;-74
2022/06/13 03:45:05;;;;;;;3.67;3.10;;;18.70;76.00;;;;;;4969301;28;20556;-74
2022/06/13 03:47:43;;;;;;;4.25;2.88;;;18.70;75.20;;;;;;4969341;28;20265;-74
2022/06/13 03:50:34;;;;;;;3.97;2.42;;;18.70;75.30;;;;;;4985851;28;20022;-74
2022/06/13 03:54:08;;;;;;;5.28;3.28;;;18.70;75.80;;;;;;4985912;28;20104;-74
2022/06/13 03:57:29;;;;;;;6.07;2.78;;;18.70;76.10;;;;;;4898832;29;20024;-75
2022/06/13 04:00:12;;;;;;;6.70;3.08;;;18.60;75.00;;;;;;4959148;28;20030;-73
2022/06/13 04:02:40;;;;;;;7.82;3.58;;;18.40;73.90;;;;;;4986970;28;20034;-75
2022/06/13 04:05:13;;;;;;;5.95;3.72;;;18.40;77.10;;;;;;4985347;28;20022;-73
2022/06/13 04:07:39;;;;;;;5.55;3.00;;;18.40;77.20;;;;;;4970118;28;20015;-74
2022/06/13 04:10:08;;;;;;;4.17;3.00;;;18.30;78.10;;;;;;4983958;28;20030;-74
2022/06/13 04:12:51;;;;;;;4.13;3.17;;;18.40;77.40;;;;;;4952925;28;20398;-74
2022/06/13 04:15:36;;;;;;;4.00;2.40;;;18.40;77.90;;;;;;5002640;28;20026;-74
2022/06/13 04:18:13;;;;;;;8.70;3.15;;;18.40;76.40;;;;;;5002411;28;20022;-75
2022/06/13 04:20:45;;;;;;;;;;;18.40;75.90;;;;;;5002279;28;20046;-75
2022/06/13 04:23:21;;;;;;;5.68;2.65;;;18.40;75.40;;;;;;5002351;28;19932;-75
2022/06/13 04:26:19;;;;;;;6.10;2.38;;;18.40;75.30;;;;;;4969292;28;20033;-75
2022/06/13 04:28:52;;;;;;;6.13;2.28;;;18.40;75.60;;;;;;4986882;28;20026;-75
2022/06/13 04:31:18;;;;;;;4.10;2.58;;;18.50;74.70;;;;;;4980186;28;20030;-75
2022/06/13 04:34:00;;;;;;;5.53;2.37;;;18.50;75.90;;;;;;4943856;28;20081;-75
2022/06/13 04:36:26;;;;;;;4.78;2.35;;;18.40;76.10;;;;;;4962358;28;20050;-73
2022/06/13 04:38:55;;;;;;;5.23;2.07;;;18.50;76.00;;;;;;4988533;28;20018;-73
2022/06/13 04:41:26;;;;;;;3.78;1.98;;;18.50;74.90;;;;;;4984934;28;20022;-70
2022/06/13 04:43:55;;;;;;;3.08;1.83;;;18.50;75.40;;;;;;4983766;28;20034;-70
2022/06/13 04:46:23;;;;;;;4.50;2.35;;;18.60;74.10;;;;;;4969242;28;20081;-70
2022/06/13 04:48:50;;;;;;;5.40;2.50;;;18.70;74.20;;;;;;4969210;28;20030;-70
2022/06/13 04:51:26;;;;;;;4.18;2.53;;;18.80;73.70;;;;;;4984866;28;20045;-70
2022/06/13 04:54:01;;;;;;;3.70;2.25;;;18.80;72.90;;;;;;4981346;28;20340;-70
2022/06/13 04:56:26;;;;;;;5.45;2.20;;;18.70;72.50;;;;;;4996810;28;20030;-70
2022/06/13 04:58:53;;;;;;;11.50;2.67;;;18.70;72.70;;;;;;4971147;28;20030;-70
2022/06/13 05:01:30;;;;;;;5.97;2.35;;;18.60;72.70;;;;;;4987733;28;20014;-70
2022/06/13 05:03:57;;;;;;;5.30;2.05;;;18.60;73.00;;;;;;4988118;28;20305;-69
2022/06/13 05:06:39;;;;;;;5.43;1.95;;;18.40;72.00;;;;;;4988420;28;20022;-71
2022/06/13 05:09:15;;;;;;;4.18;1.77;;;18.40;73.20;;;;;;4988311;28;20030;-69
2022/06/13 05:12:09;;;;;;;2.10;1.50;;;18.50;74.60;;;;;;4988754;28;20037;-70
2022/06/13 05:15:03;;;;;;;4.32;2.20;;;18.50;74.00;;;;;;4987120;28;20057;-69
2022/06/13 05:17:56;;;;;;;3.28;2.05;;;18.60;74.60;;;;;;4998253;28;20057;-68
2022/06/13 05:20:40;;;;;;;3.75;1.98;;;18.60;75.10;;;;;;5003617;28;20045;-68
2022/06/13 05:23:47;;;;;;;6.00;2.70;;;18.60;73.90;;;;;;5003458;28;20276;-68
2022/06/13 05:26:13;;;;;;;5.40;2.03;;;18.70;72.30;;;;;;5002412;28;20066;-69
2022/06/13 05:28:38;;;;;;;7.93;2.93;;;18.60;72.80;;;;;;5003816;28;20252;-68
2022/06/13 05:31:18;;;;;;;4.10;1.70;;;18.60;73.40;;;;;;5004893;28;20053;-69
2022/06/13 05:33:44;;;;;;;8.00;1.92;;;18.60;73.00;;;;;;4953417;28;20090;-69
2022/06/13 05:36:14;;;;;;;7.63;1.90;;;18.70;71.90;;;;;;4987193;28;20026;-69
2022/06/13 05:38:54;;;;;;;5.47;2.03;;;18.70;70.00;;;;;;4987726;28;20034;-69
2022/06/13 05:41:20;;;;;;;5.85;1.77;;;18.70;71.70;;;;;;4972536;28;20026;-69
2022/06/13 05:43:46;;;;;;;7.33;2.10;;;18.70;71.90;;;;;;5004389;28;20022;-69
2022/06/13 05:46:30;;;;;;;4.37;1.93;;;18.80;72.50;;;;;;5004781;28;20090;-69
2022/06/13 05:48:55;;;;;;;3.08;1.77;;;18.80;70.90;;;;;;4972837;28;20018;-69
2022/06/13 05:51:21;;;;;;;5.80;2.07;;;18.80;71.40;;;;;;5004833;28;20026;-69
2022/06/13 05:53:47;;;;;;;3.53;1.90;;;18.90;72.60;;;;;;5004463;28;20036;-69
2022/06/13 05:56:13;;;;;;;4.97;2.07;;;18.90;73.50;;;;;;5005157;28;20280;-69
2022/06/13 05:58:39;;;;;;;5.43;1.93;;;18.90;74.90;;;;;;4987223;28;20072;-69
2022/06/13 06:01:05;;;;;;;7.10;2.43;;;18.90;73.60;;;;;;5004638;28;20022;-69
2022/06/13 06:03:31;;;;;;;4.13;1.92;;;19.00;72.70;;;;;;5004310;28;20029;-69
2022/06/13 06:05:58;;;;;;;5.10;1.60;;;19.00;71.60;;;;;;4987061;28;20084;-69
2022/06/13 06:08:30;;;;;;;7.55;2.10;;;19.00;71.20;;;;;;4987102;28;20025;-69
2022/06/13 06:10:57;;;;;;;2.92;1.75;;;19.00;72.00;;;;;;4987134;28;20026;-69
2022/06/13 06:13:23;;;;;;;4.35;1.88;;;19.00;69.60;;;;;;5003802;28;20030;-68
2022/06/13 06:15:49;;;;;;;6.43;1.73;;;19.00;72.00;;;;;;4987046;28;20145;-69
2022/06/13 06:18:16;;;;;;;5.13;2.10;;;18.90;68.20;;;;;;5004303;28;20080;-68
2022/06/13 06:20:42;;;;;;;7.07;2.72;;;18.90;70.90;;;;;;5004108;28;20019;-68
2022/06/13 06:23:07;;;;;;;5.53;1.90;;;19.00;72.00;;;;;;5003938;28;20042;-68
2022/06/13 06:25:33;;;;;;;5.50;2.17;;;19.00;70.50;;;;;;5004133;28;20030;-69
2022/06/13 06:28:00;;;;;;;4.95;1.63;;;19.00;67.80;;;;;;5003949;28;20049;-69
2022/06/13 06:30:29;;;;;;;;;;;19.00;70.00;;;;;;4986046;28;20033;-69
2022/06/13 06:32:55;;;;;;;8.48;1.85;;;19.10;70.70;;;;;;5003809;28;19906;-68
2022/06/13 06:35:23;;;;;;;3.42;1.65;;;18.90;68.60;;;;;;5004024;28;20105;-69
2022/06/13 06:37:49;;;;;;;7.88;2.22;;;18.90;69.60;;;;;;4970401;28;20037;-68
2022/06/13 06:40:16;;;;;;;5.30;1.70;;;18.90;70.70;;;;;;4970286;28;20026;-69
2022/06/13 06:42:42;;;;;;;5.88;1.85;;;18.90;69.10;;;;;;5003433;28;20029;-68
2022/06/13 06:45:09;;;;;;;7.00;1.83;;;18.90;69.80;;;;;;5003363;28;20093;-68
2022/06/13 06:47:36;;;;;;;8.00;2.33;;;19.00;71.10;;;;;;5003524;28;20029;-68
2022/06/13 06:50:03;;;;;;;4.07;1.95;;;19.10;72.50;;;;;;4985944;28;20019;-69
2022/06/13 06:52:29;;;;;;;5.65;1.90;;;19.10;72.90;;;;;;5003275;28;20065;-69
2022/06/13 07:00:24;;;;;;;6.18;1.50;;;19.10;70.20;;;;;;5002912;28;20029;-74
2022/06/13 07:02:51;;;;;;;4.40;1.92;;;19.10;69.70;;;;;;5003117;28;20279;-74
2022/06/13 07:05:16;;;;;;;6.40;1.87;;;19.20;70.80;;;;;;4985739;28;20022;-74
2022/06/13 07:07:43;;;;;;;4.30;1.80;;;19.20;70.30;;;;;;5003103;28;20022;-74
2022/06/13 07:10:11;;;;;;;8.82;2.72;;;19.30;70.40;;;;;;5003353;28;20089;-74
2022/06/13 07:12:37;;;;;;;4.22;1.70;;;19.40;68.40;;;;;;4985862;28;20026;-73
2022/06/13 07:15:03;;;;;;;9.47;2.33;;;19.40;69.50;;;;;;5002386;28;20045;-74
2022/06/13 07:17:28;;;;;;;9.82;2.50;;;19.50;68.70;;;;;;5002648;28;20025;-73
2022/06/13 07:19:54;;;;;;;7.43;2.17;;;19.50;68.50;;;;;;4985861;28;20026;-73
2022/06/13 07:22:22;;;;;;;6.67;1.93;;;19.50;69.50;;;;;;5002948;28;20026;-73
2022/06/13 07:24:48;;;;;;;8.27;1.92;;;19.60;71.70;;;;;;4984506;28;20054;-73
2022/06/13 07:27:14;;;;;;;6.97;2.13;;;19.70;70.90;;;;;;5002854;28;20033;-73
2022/06/13 07:29:41;;;;;;;9.40;2.30;;;19.70;68.60;;;;;;4984565;28;20197;-73
2022/06/13 07:32:19;;;;;;;8.85;2.40;;;19.60;69.70;;;;;;4985779;28;20029;-73
2022/06/13 07:34:48;;;;;;;8.55;2.05;;;19.60;69.10;;;;;;4985164;28;20037;-73
2022/06/13 07:38:16;;;;;;;6.75;2.08;;;19.60;67.70;;;;;;4969854;28;20026;-73
2022/06/13 07:40:04;;;;;;;5.20;1.80;;;19.60;67.70;;;;;;4975521;28;20033;-74
2022/06/13 07:42:40;;;;;;;6.10;1.92;;;19.60;68.80;;;;;;4985290;28;20018;-74
2022/06/13 07:45:07;;;;;;;4.40;1.75;;;19.70;67.90;;;;;;4971646;28;20027;-74
2022/06/13 07:47:33;;;;;;;6.45;1.90;;;19.80;67.10;;;;;;4969563;28;20282;-74
2022/06/13 07:49:58;;;;;;;6.00;1.83;;;19.80;67.30;;;;;;4985433;28;20128;-74
2022/06/13 07:52:24;;;;;;;5.07;1.80;;;19.90;68.80;;;;;;5002846;28;20045;-73
2022/06/13 07:54:50;;;;;;;10.33;2.73;;;20.00;68.10;;;;;;4984599;28;20030;-73
2022/06/13 07:57:16;;;;;;;5.13;1.77;;;20.00;69.20;;;;;;4985656;28;20045;-74
2022/06/13 07:59:42;;;;;;;5.93;2.03;;;20.10;69.70;;;;;;4984521;28;20021;-74
2022/06/13 08:02:16;;;;;;;4.80;1.67;;;20.20;69.90;;;;;;4985376;28;20089;-74
2022/06/13 08:04:41;;;;;;;5.05;1.95;;;20.20;68.80;;;;;;4969411;28;20053;-74
2022/06/13 08:07:10;;;;;;;11.30;2.40;;;20.20;67.20;;;;;;5002711;28;20057;-74
2022/06/13 08:09:37;;;;;;;11.00;2.25;;;20.30;65.90;;;;;;4969469;28;20045;-74
2022/06/13 08:12:03;;;;;;;;;;;20.40;66.00;;;;;;5002930;28;20053;-76
2022/06/13 08:14:29;;;;;;;7.97;1.75;;;20.40;65.80;;;;;;4984450;28;19969;-74
2022/06/13 08:16:55;;;;;;;7.83;2.47;;;20.40;63.20;;;;;;4985363;28;20268;-73
2022/06/13 08:19:21;;;;;;;7.40;2.40;;;20.40;63.20;;;;;;5002761;28;20035;-74
2022/06/13 08:21:47;;;;;;;4.37;2.07;;;20.50;64.40;;;;;;5003114;28;20034;-76
2022/06/13 08:24:12;;;;;;;10.47;2.10;;;20.50;63.40;;;;;;5001368;28;20265;-75
2022/06/13 08:26:38;;;;;;;6.90;2.43;;;20.40;64.00;;;;;;5002353;28;20064;-75
2022/06/13 08:29:04;;;;;;;5.77;2.20;;;20.40;64.40;;;;;;5008990;28;20315;-75
2022/06/13 08:31:31;;;;;;;3.53;2.03;;;20.50;65.30;;;;;;5011822;28;20029;-75
2022/06/13 08:33:57;;;;;;;6.25;2.17;;;20.50;64.70;;;;;;4995584;28;20042;-75
2022/06/13 08:36:23;;;;;;;6.50;2.33;;;20.50;65.40;;;;;;5013572;28;20038;-76
2022/06/13 08:38:48;;;;;;;6.33;1.80;;;20.60;64.90;;;;;;4994624;28;20034;-75
2022/06/13 08:41:29;;;;;;;5.30;2.03;;;20.60;65.10;;;;;;5006640;28;20090;-75
2022/06/13 08:44:13;;;;;;;9.52;2.47;;;20.60;65.60;;;;;;4958970;28;20026;-75
2022/06/13 08:46:52;;;;;;;9.73;2.13;;;20.70;67.60;;;;;;5005904;28;20057;-75
2022/06/13 08:49:44;;;;;;;3.65;2.05;;;20.80;67.20;;;;;;4989576;28;20030;-75
2022/06/13 08:52:31;;;;;;;8.68;2.33;;;20.90;67.70;;;;;;4961582;28;20053;-75
2022/06/13 08:55:32;;;;;;;7.13;2.30;;;21.00;67.40;;;;;;4971874;28;20095;-75
2022/06/13 08:58:06;;;;;;;6.07;2.00;;;21.00;63.80;;;;;;4907470;28;20052;-75
2022/06/13 09:00:33;;;;;;;9.65;2.67;;;21.00;62.90;;;;;;4988615;28;20101;-76
2022/06/13 09:03:10;;;;;;;;;;;21.00;63.20;;;;;;4973105;28;20066;-75
2022/06/13 09:05:41;;;;;;;7.45;2.47;;;20.90;64.10;;;;;;4988242;28;20112;-76
2022/06/13 09:08:20;;;;;;;5.07;1.85;;;21.00;63.70;;;;;;4970121;28;20321;-75
2022/06/13 09:11:07;;;;;;;5.15;1.95;;;21.00;63.60;;;;;;4953361;28;20352;-76
2022/06/13 09:14:15;;;;;;;6.07;1.67;;;21.00;61.30;;;;;;4968820;28;20042;-75
2022/06/13 09:16:46;;;;;;;7.57;2.20;;;21.00;61.60;;;;;;4968890;28;20026;-75
2022/06/13 09:19:19;;;;;;;10.35;2.28;;;21.00;61.70;;;;;;4969131;28;20038;-75
2022/06/13 09:22:18;;;;;;;6.20;2.35;;;20.90;61.60;;;;;;4969600;28;20033;-75
2022/06/13 09:25:09;;;;;;;6.63;2.42;;;20.80;60.30;;;;;;4995746;28;20034;-75
2022/06/13 09:27:39;;;;;;;5.60;2.00;;;20.90;61.00;;;;;;4988144;28;20045;-75
2022/06/13 09:30:13;;;;;;;7.88;1.60;;;21.00;59.50;;;;;;4987050;28;20026;-75
2022/06/13 09:32:52;;;;;;;6.10;2.05;;;21.10;59.00;;;;;;4988930;28;20014;-74
2022/06/13 09:35:42;;;;;;;5.13;1.98;;;21.20;58.90;;;;;;4989687;28;20272;-75
2022/06/13 09:38:17;;;;;;;5.55;2.03;;;21.20;57.20;;;;;;4988268;28;20356;-75
2022/06/13 09:40:59;;;;;;;8.00;2.00;;;21.10;56.50;;;;;;4986793;28;20045;-75
2022/06/13 09:43:40;;;;;;;6.28;1.90;;;21.20;57.70;;;;;;5005092;28;20060;-75
2022/06/13 09:46:11;;;;;;;5.88;1.90;;;21.20;56.50;;;;;;5004754;28;20018;-75
2022/06/13 09:49:20;;;;;;;10.45;2.67;;;21.20;56.90;;;;;;4987622;28;20289;-76
2022/06/13 09:52:20;;;;;;;;;;;21.20;55.80;;;;;;4990246;28;20026;-76
2022/06/13 09:55:11;;;;;;;6.15;1.70;;;21.30;56.30;;;;;;4995770;28;20111;-75
2022/06/13 09:58:12;;;;;;;6.90;1.67;;;21.30;55.10;;;;;;4971009;28;20029;-75
2022/06/13 10:01:05;;;;;;;7.25;1.67;;;21.30;54.20;;;;;;4984881;28;20033;-75
2022/06/13 10:04:23;;;;;;;4.40;2.00;;;21.20;53.90;;;;;;4934566;28;20206;-75
2022/06/13 10:06:58;;;;;;;4.13;1.98;;;21.20;54.30;;;;;;4958467;28;20077;-76
2022/06/13 10:09:56;;;;;;;6.40;1.60;;;21.30;56.00;;;;;;4947391;28;20018;-74
2022/06/13 10:13:23;;;;;;;5.57;1.80;;;21.30;54.50;;;;;;4969892;28;20023;-74
2022/06/13 10:16:22;;;;;;;6.45;2.05;;;21.30;55.70;;;;;;4984633;28;20034;-75
2022/06/13 10:19:23;;;;;;;7.28;2.38;;;21.20;54.80;;;;;;4993288;28;20085;-75
2022/06/13 10:22:03;;;;;;;8.70;1.70;;;21.30;54.30;;;;;;4976099;28;20046;-75
2022/06/13 10:25:09;;;;;;;5.15;1.95;;;21.30;55.60;;;;;;4967092;28;20038;-75
2022/06/13 10:28:04;;;;;;;5.97;1.73;;;21.30;53.20;;;;;;4984612;28;20045;-74
2022/06/13 10:31:18;;;;;;;4.20;1.48;;;21.30;54.80;;;;;;4970969;28;20041;-74
2022/06/13 10:34:01;;;;;;;5.45;1.90;;;21.20;54.30;;;;;;4981098;28;20039;-75
2022/06/13 10:36:45;;;;;;;3.00;1.30;;;21.20;54.90;;;;;;4997746;28;20026;-74
2022/06/13 10:39:14;;;;;;;2.80;1.45;;;21.30;52.10;;;;;;4975162;28;20026;-75
2022/06/13 10:41:43;;;;;;;3.35;1.60;;;21.40;51.30;;;;;;5003067;28;20053;-75
2022/06/13 10:44:12;;;;;;;4.50;1.48;;;21.50;52.10;;;;;;4986648;28;20022;-75
2022/06/13 10:46:52;;;;;;;10.80;2.35;;;21.60;51.40;;;;;;4986887;28;20248;-75
2022/06/13 10:49:21;;;;;;;3.83;2.25;;;21.70;52.40;;;;;;4970631;28;20155;-75
2022/06/13 10:51:47;;;;;;;4.75;1.73;;;21.60;51.80;;;;;;4986235;28;20029;-75
2022/06/13 10:54:21;;;;;;;6.80;2.00;;;21.60;51.30;;;;;;4969734;28;20030;-75
2022/06/13 10:56:53;;;;;;;7.13;2.85;;;21.50;52.60;;;;;;4971412;28;20367;-76
2022/06/13 10:59:31;;;;;;;6.68;2.10;;;21.50;52.00;;;;;;4970249;28;20036;-75
2022/06/13 11:02:03;;;;;;;7.30;2.15;;;21.40;51.60;;;;;;4986147;28;20025;-75
2022/06/13 11:04:34;;;;;;;5.13;1.50;;;21.40;52.70;;;;;;4970032;28;20335;-75
2022/06/13 11:07:19;;;;;;;6.95;1.65;;;21.50;53.80;;;;;;4986203;28;20113;-75
2022/06/13 11:09:47;;;;;;;5.47;1.58;;;21.60;50.70;;;;;;5003349;28;20026;-75
2022/06/13 11:12:28;;;;;;;3.88;1.80;;;21.60;50.70;;;;;;4986134;28;20341;-75
2022/06/13 11:23:53;;;;;;;6.37;1.47;;;22.10;48.50;;;;;;4971405;28;20037;-75
2022/06/13 11:29:05;;;;;;;2.47;1.00;;;22.20;49.00;;;;;;4968953;28;20070;-76
2022/06/13 11:31:30;;;;;;;;;;;22.20;47.60;;;;;;4953534;28;20018;-75
2022/06/13 11:33:56;;;;;;;7.15;1.40;;;22.20;47.50;;;;;;5002629;28;19976;-75
2022/06/13 11:36:27;;;;;;;3.97;1.10;;;22.20;49.50;;;;;;4985440;28;20214;-75
2022/06/13 11:39:04;;;;;;;4.20;1.20;;;22.20;48.00;;;;;;4985374;28;20041;-75
2022/06/13 11:41:43;;;;;;;4.03;1.20;;;22.30;46.00;;;;;;4981054;28;20236;-75
2022/06/13 11:44:18;;;;;;;6.80;0.95;;;22.30;45.00;;;;;;4969541;28;20325;-74
2022/06/13 11:47:01;;;;;;;2.72;1.10;;;22.30;44.20;;;;;;4985343;28;20129;-75
2022/06/13 11:49:30;;;;;;;3.33;0.90;;;22.30;42.40;;;;;;4971720;28;20221;-76
2022/06/13 11:52:14;;;;;;;3.42;1.05;;;22.30;42.50;;;;;;4985681;28;20240;-77
2022/06/13 11:54:54;;;;;;;6.53;1.90;;;22.30;43.70;;;;;;4985182;28;20101;-76
2022/06/13 11:57:34;;;;;;;2.40;1.00;;;22.50;44.80;;;;;;4985491;28;20026;-76
2022/06/13 12:00:17;;;;;;;3.10;1.27;;;22.80;44.80;;;;;;4987055;28;20026;-76
2022/06/13 12:02:48;;;;;;;3.05;0.98;;;23.00;44.90;;;;;;5002336;28;20053;-76
2022/06/13 12:05:23;;;;;;;5.95;2.60;;;23.20;44.10;;;;;;5008236;28;20275;-76
2022/06/13 12:08:00;;;;;;;2.28;1.10;;;23.30;44.60;;;;;;5009183;28;20163;-76
2022/06/13 12:10:34;;;;;;;6.40;1.30;;;23.40;42.90;;;;;;4992604;28;20022;-77
2022/06/13 12:13:00;;;;;;;3.47;1.20;;;23.40;42.90;;;;;;4975048;28;20030;-77
2022/06/13 12:15:37;;;;;;;2.42;1.33;;;23.30;43.70;;;;;;4991418;28;20372;-77
2022/06/13 12:18:26;;;;;;;4.78;1.20;;;23.20;42.60;;;;;;4991517;28;20084;-77
2022/06/13 12:21:30;;;;;;;3.10;1.05;;;23.30;44.70;;;;;;4991083;28;20381;-74
2022/06/13 12:24:48;;;;;;;1.63;1.08;;;23.30;43.80;;;;;;4989213;28;20033;-77
2022/06/13 12:27:34;;;;;;;2.35;1.10;;;23.50;43.70;;;;;;5008872;28;20206;-77
2022/06/13 12:30:27;;;;;;;1.42;1.08;;;23.80;43.50;;;;;;4977612;28;20026;-77
2022/06/13 12:33:02;;;;;;;2.58;1.20;;;23.90;45.10;;;;;;5008360;28;20030;-77
2022/06/13 12:35:59;;;;;;;3.72;1.58;;;24.00;42.50;;;;;;5009061;28;20034;-77
2022/06/13 12:39:19;;;;;;;2.78;1.25;;;24.20;42.80;;;;;;4993610;28;20291;-77
2022/06/13 12:42:03;;;;;;;5.03;1.50;;;24.20;45.80;;;;;;4977805;28;20104;-76
2022/06/13 12:44:47;;;;;;;2.78;1.40;;;24.20;43.20;;;;;;4972398;28;20022;-77
2022/06/13 12:47:33;;;;;;;4.65;1.33;;;24.30;43.70;;;;;;4989216;28;20102;-77
2022/06/13 12:50:24;;;;;;;4.07;1.30;;;24.30;44.90;;;;;;4989350;28;20137;-77
2022/06/13 12:52:53;;;;;;;1.95;1.10;;;24.60;45.40;;;;;;4971776;28;20340;-76
2022/06/13 12:55:30;;;;;;;4.82;1.85;;;24.80;42.90;;;;;;4998629;28;20126;-76
2022/06/13 12:58:26;;;;;;;3.05;1.48;;;24.90;42.70;;;;;;5008646;28;20032;-76
2022/06/13 13:01:16;;;;;;;4.40;1.55;;;25.10;43.80;;;;;;5008769;28;20061;-76
2022/06/13 13:03:51;;;;;;;4.05;1.35;;;25.40;42.00;;;;;;4993859;28;20085;-76
2022/06/13 13:06:52;;;;;;;4.68;1.75;;;25.40;42.20;;;;;;5008199;28;20400;-77
2022/06/13 13:09:28;;;;;;;4.22;1.50;;;25.60;43.70;;;;;;4988665;28;20034;-77
2022/06/13 13:12:07;;;;;;;3.28;1.25;;;25.70;41.60;;;;;;4997127;28;20057;-76
2022/06/13 13:14:44;;;;;;;5.95;1.30;;;25.80;40.90;;;;;;4988884;28;20080;-79
2022/06/13 13:17:35;;;;;;;;;;;25.90;41.60;;;;;;4968929;28;20027;-77
2022/06/13 13:20:20;;;;;;;8.02;1.85;;;26.00;42.30;;;;;;4992413;28;19913;-78
2022/06/13 13:23:15;;;;;;;4.47;1.70;;;26.20;40.30;;;;;;5006530;28;20081;-77
2022/06/13 13:25:52;;;;;;;4.15;1.20;;;26.30;41.10;;;;;;4985664;28;20241;-77
2022/06/13 13:28:44;;;;;;;3.17;1.58;;;26.40;41.60;;;;;;4972862;28;20038;-77
2022/06/13 13:31:24;;;;;;;2.05;1.45;;;26.10;42.30;;;;;;4986918;28;20036;-76
2022/06/13 13:33:53;;;;;;;7.53;2.28;;;26.20;42.70;;;;;;4987769;28;20058;-76
2022/06/13 13:36:25;;;;;;;3.80;1.38;;;26.00;42.80;;;;;;4985890;28;20027;-78
2022/06/13 13:38:56;;;;;;;5.63;1.65;;;26.00;43.30;;;;;;5005736;28;20026;-77
2022/06/13 13:41:56;;;;;;;4.68;1.40;;;26.10;42.30;;;;;;4975444;28;20092;-78
2022/06/13 13:44:28;;;;;;;4.90;1.35;;;26.50;42.60;;;;;;4987580;28;20014;-77
2022/06/13 13:47:13;;;;;;;3.17;1.23;;;26.50;40.60;;;;;;4989085;28;20030;-77
2022/06/13 13:50:09;;;;;;;6.13;1.80;;;26.20;40.00;;;;;;4988516;28;20352;-79
2022/06/13 13:52:39;;;;;;;4.07;1.70;;;26.20;43.00;;;;;;4989027;28;20420;-76
2022/06/13 13:55:12;;;;;;;4.32;1.95;;;26.60;43.20;;;;;;4978803;28;20026;-79
2022/06/13 13:57:44;;;;;;;6.50;1.60;;;26.90;41.80;;;;;;4986075;28;20034;-77
2022/06/13 14:00:51;;;;;;;5.47;1.73;;;26.80;39.80;;;;;;4978150;28;20370;-77